Погода Тлохна неделю

Республика Дагестан, Россия

13 - 19 июля
  • 13июля
    Сегодня
    +10°
    +23°
    Небольшая облачность
    ВремяПогодаТемператураВлажностьДавлениеВетер, м/сВероятность осадков
    00:00Ясно и безоблачно+14°C84 %612 мм1.1 м/с2 %
    03:00Ясно и безоблачно+14°C80 %612 мм0.9 м/с2 %
    06:00Ясно и безоблачно+14°C76 %613 мм0.7 м/с2 %
    09:00Практически безоблачно+19°C61 %614 мм1.5 м/с8 %
    12:00Небольшая облачность+22°C48 %614 мм2.5 м/с20 %
    15:00Небольшая облачность+22°C51 %614 мм2.7 м/с22 %
    18:00Практически безоблачно+19°C60 %613 мм1.5 м/с9 %
    21:00Небольшая облачность+15°C71 %612 мм1.5 м/с2 %
  • 14июля
    Воскресенье
    +9°
    +23°
    Ясно и безоблачно
    ВремяПогодаТемператураВлажностьДавлениеВетер, м/сВероятность осадков
    00:00Ясно и безоблачно+12°C81 %611 мм1.1 м/с4 %
    03:00Ясно и безоблачно+12°C88 %611 мм1.4 м/с9 %
    06:00Практически безоблачно+13°C85 %612 мм1.5 м/с3 %
    09:00Ясно и безоблачно+18°C46 %613 мм2.0 м/с3 %
    12:00Ясно и безоблачно+21°C38 %614 мм2.1 м/с3 %
    15:00Ясно и безоблачно+23°C37 %614 мм2.3 м/с3 %
    18:00Ясно и безоблачно+19°C51 %613 мм1.1 м/с2 %
    21:00Ясно и безоблачно+16°C47 %613 мм0.7 м/с2 %
  • 15июля
    Понедельник
    +12°
    +23°
    Небольшая облачность
    ВремяПогодаТемператураВлажностьДавлениеВетер, м/сВероятность осадков
    00:00Ясно и безоблачно+14°C57 %613 мм0.4 м/с2 %
    03:00Ясно и безоблачно+11°C70 %611 мм0.8 м/с2 %
    06:00Ясно и безоблачно+13°C68 %612 мм0.6 м/с2 %
    09:00Ясно и безоблачно+18°C41 %614 мм0.9 м/с2 %
    12:00Ясно и безоблачно+22°C36 %615 мм2.1 м/с2 %
    15:00Небольшая облачность+23°C41 %615 мм2.4 м/с3 %
    18:00Практически безоблачно+21°C57 %615 мм1.3 м/с2 %
    21:00Ясно и безоблачно+16°C71 %614 мм0.8 м/с2 %
  • 16июля
    Вторник
    +15°
    +24°
    Небольшая облачность
    ВремяПогодаТемператураВлажностьДавлениеВетер, м/сВероятность осадков
    00:00Ясно и безоблачно+14°C85 %613 мм0.5 м/с2 %
    03:00Ясно и безоблачно+15°C81 %613 мм0.8 м/с2 %
    06:00Ясно и безоблачно+15°C76 %614 мм0.7 м/с2 %
    09:00Ясно и безоблачно+20°C51 %615 мм0.9 м/с2 %
    12:00Ясно и безоблачно+23°C40 %616 мм2.1 м/с2 %
    15:00Небольшая облачность+24°C43 %616 мм2.5 м/с13 %
    18:00Практически безоблачно+21°C59 %615 мм1.7 м/с9 %
    21:00Ясно и безоблачно+16°C75 %615 мм0.9 м/с3 %
  • 17июля
    Среда
    +13°
    +24°
    Облачно с прояснениями
    ВремяПогодаТемператураВлажностьДавлениеВетер, м/сВероятность осадков
    00:00Ясно и безоблачно+15°C85 %614 мм0.6 м/с2 %
    03:00Ясно и безоблачно+16°C82 %614 мм0.7 м/с2 %
    06:00Ясно и безоблачно+15°C79 %614 мм0.7 м/с2 %
    09:00Ясно и безоблачно+21°C53 %616 мм1.0 м/с3 %
    12:00Небольшая облачность+23°C39 %617 мм1.8 м/с23 %
    15:00Облачно с прояснениями+22°C45 %616 мм2.3 м/с40 %
    18:00Практически безоблачно+20°C59 %615 мм1.0 м/с37 %
    21:00Практически безоблачно+15°C78 %614 мм0.5 м/с15 %
Мы используем cookies
Соглашаюсь